createdAt,value
2018-04-14T00:01:14.326Z,1.90
2018-04-14T00:03:42.085Z,4.13
2018-04-14T00:06:10.805Z,2.50
2018-04-14T00:08:38.565Z,2.43
2018-04-14T00:11:06.346Z,1.80
2018-04-14T00:13:34.114Z,1.97
2018-04-14T00:16:01.873Z,2.03
2018-04-14T00:18:29.596Z,1.37
2018-04-14T00:20:57.366Z,1.37
2018-04-14T00:23:25.114Z,1.77
2018-04-14T00:25:53.081Z,1.37
2018-04-14T00:28:21.028Z,1.93
2018-04-14T00:30:48.835Z,1.93
2018-04-14T00:33:16.810Z,2.20
2018-04-14T00:35:44.550Z,1.93
2018-04-14T00:38:13.177Z,1.50
2018-04-14T00:40:40.953Z,1.30
2018-04-14T00:43:09.706Z,1.90
2018-04-14T00:45:37.466Z,1.60
2018-04-14T00:48:05.809Z,1.50
2018-04-14T00:50:34.353Z,1.43
2018-04-14T00:53:14.178Z,1.53
2018-04-14T00:55:41.983Z,1.70
2018-04-14T00:58:10.545Z,1.80
2018-04-14T01:00:38.354Z,1.50
2018-04-14T01:03:06.147Z,1.40
2018-04-14T01:05:34.669Z,1.40
2018-04-14T01:08:02.406Z,1.47
2018-04-14T01:10:30.227Z,1.70
2018-04-14T01:12:58.029Z,2.00
2018-04-14T01:15:25.783Z,1.40
2018-04-14T01:17:53.602Z,1.40
2018-04-14T01:20:23.118Z,1.27
2018-04-14T01:22:51.639Z,1.20
2018-04-14T01:25:19.381Z,1.23
2018-04-14T01:27:47.187Z,1.10
2018-04-14T01:30:15.546Z,1.30
2018-04-14T01:32:43.972Z,1.50
2018-04-14T01:35:12.481Z,1.37
2018-04-14T01:37:41.165Z,1.00
2018-04-14T01:40:09.822Z,1.10
2018-04-14T01:42:37.721Z,1.43
2018-04-14T01:45:05.772Z,1.00
2018-04-14T01:47:34.325Z,1.90
2018-04-14T01:50:02.176Z,1.13
2018-04-14T01:52:30.702Z,1.00
2018-04-14T01:54:59.227Z,1.10
2018-04-14T01:57:26.981Z,1.00
2018-04-14T01:59:54.708Z,1.20
2018-04-14T02:02:23.213Z,1.27
2018-04-14T02:04:50.970Z,1.23
2018-04-14T02:07:19.725Z,1.20
2018-04-14T02:09:47.478Z,1.07
2018-04-14T02:12:16.921Z,0.90
2018-04-14T02:14:45.309Z,1.07
2018-04-14T02:17:13.070Z,1.43
2018-04-14T02:19:42.332Z,1.13
2018-04-14T02:22:10.099Z,1.07
2018-04-14T02:24:37.839Z,1.20
2018-04-14T02:27:05.589Z,1.40
2018-04-14T02:29:33.379Z,1.50
2018-04-14T02:32:02.061Z,1.27
2018-04-14T02:34:29.817Z,1.07
2018-04-14T02:36:57.911Z,1.40
2018-04-14T02:39:27.048Z,1.70
2018-04-14T02:41:54.864Z,2.10
2018-04-14T02:44:24.412Z,1.30
2018-04-14T02:46:52.346Z,1.07
2018-04-14T02:49:20.110Z,2.57
2018-04-14T02:51:48.148Z,2.13
2018-04-14T02:54:15.886Z,2.00
2018-04-14T02:56:43.932Z,1.50
2018-04-14T02:59:12.445Z,1.40
2018-04-14T03:01:40.211Z,0.90
2018-04-14T03:04:08.319Z,0.70
2018-04-14T03:06:36.093Z,0.90
2018-04-14T03:09:05.282Z,1.10
2018-04-14T03:11:33.022Z,1.27
2018-04-14T03:14:01.647Z,1.07
2018-04-14T03:16:30.261Z,1.00
2018-04-14T03:18:58.000Z,1.23
2018-04-14T03:21:26.509Z,1.20
2018-04-14T03:23:54.289Z,1.00
2018-04-14T03:26:22.048Z,0.80
2018-04-14T03:28:50.598Z,1.00
2018-04-14T03:31:19.169Z,1.37
2018-04-14T03:33:46.920Z,1.13
2018-04-14T03:36:17.475Z,1.10
2018-04-14T03:38:46.002Z,1.20
2018-04-14T03:41:14.772Z,2.03
2018-04-14T03:43:43.503Z,1.00
2018-04-14T03:46:12.148Z,0.93
2018-04-14T03:48:39.898Z,1.07
2018-04-14T03:51:07.741Z,1.30
2018-04-14T03:53:36.249Z,1.33
2018-04-14T03:56:04.862Z,1.07
2018-04-14T03:58:33.595Z,0.93
2018-04-14T04:01:03.052Z,1.40
2018-04-14T04:03:31.783Z,1.00
2018-04-14T04:06:00.294Z,1.17
2018-04-14T04:08:29.677Z,0.80
2018-04-14T04:10:58.318Z,1.00
2018-04-14T04:13:26.241Z,1.30
2018-04-14T04:15:53.969Z,1.00
2018-04-14T04:18:34.410Z,0.90
2018-04-14T04:21:14.189Z,1.30
2018-04-14T04:23:54.477Z,0.90
2018-04-14T04:26:23.173Z,1.20
2018-04-14T04:28:50.972Z,1.30
2018-04-14T04:31:19.788Z,1.23
2018-04-14T04:33:48.824Z,1.40
2018-04-14T04:36:17.856Z,1.20
2018-04-14T05:33:53.913Z,1.57
2018-04-14T06:56:32.554Z,1.53
2018-04-14T06:59:22.010Z,1.90
2018-04-14T07:16:34.970Z,1.40
2018-04-14T07:19:04.041Z,2.50
2018-04-14T07:21:33.092Z,3.40
2018-04-14T07:24:02.149Z,2.37
2018-04-14T07:27:02.882Z,2.40
2018-04-14T07:32:10.049Z,2.10
2018-04-14T07:38:00.659Z,2.40
2018-04-14T08:00:28.965Z,3.10
2018-04-14T08:10:18.701Z,2.37
2018-04-14T08:26:36.614Z,2.87
2018-04-14T08:29:04.377Z,2.80
2018-04-14T08:31:32.876Z,2.63
2018-04-14T08:34:00.612Z,2.77
2018-04-14T08:36:29.116Z,2.83
2018-04-14T08:38:56.864Z,2.80
2018-04-14T08:41:24.598Z,2.37
2018-04-14T08:43:52.329Z,2.23
2018-04-14T08:46:20.212Z,2.10
2018-04-14T08:48:47.963Z,2.00
2018-04-14T08:51:15.800Z,2.00
2018-04-14T08:53:43.583Z,2.57
2018-04-14T08:56:11.347Z,1.57
2018-04-14T08:58:39.073Z,2.23
2018-04-14T09:01:07.799Z,2.20
2018-04-14T09:03:35.583Z,2.07
2018-04-14T09:06:03.311Z,2.27
2018-04-14T09:08:31.047Z,1.37
2018-04-14T09:10:59.536Z,1.97
2018-04-14T09:13:27.268Z,1.60
2018-04-14T09:15:54.985Z,1.70
2018-04-14T09:18:22.723Z,1.30
2018-04-14T09:20:51.282Z,1.40
2018-04-14T09:23:19.018Z,1.60
2018-04-14T09:25:46.746Z,1.37
2018-04-14T09:28:14.785Z,1.63
2018-04-14T09:30:43.461Z,1.60
2018-04-14T09:33:11.180Z,1.60
2018-04-14T09:35:38.957Z,2.00
2018-04-14T09:38:06.688Z,2.13
2018-04-14T09:40:34.421Z,1.50
2018-04-14T09:43:02.192Z,2.30
2018-04-14T09:45:30.748Z,1.70
2018-04-14T09:47:58.477Z,1.50
2018-04-14T09:50:26.204Z,1.50
2018-04-14T09:52:54.728Z,1.17
2018-04-14T09:55:22.448Z,1.47
2018-04-14T09:57:50.941Z,1.20
2018-04-14T10:00:25.140Z,1.47
2018-04-14T10:02:53.744Z,1.17
2018-04-14T10:05:22.225Z,1.30
2018-04-14T10:07:49.992Z,1.47
2018-04-14T10:10:17.739Z,1.43
2018-04-14T10:12:46.244Z,1.87
2018-04-14T10:15:13.973Z,1.63
2018-04-14T10:17:41.702Z,1.87
2018-04-14T10:20:09.454Z,2.90
2018-04-14T10:22:37.246Z,2.70
2018-04-14T10:25:04.988Z,1.63
2018-04-14T10:27:32.785Z,2.07
2018-04-14T10:30:00.544Z,2.23
2018-04-14T10:32:28.274Z,2.50
2018-04-14T10:34:56.013Z,2.50
2018-04-14T10:37:23.749Z,2.50
2018-04-14T10:39:52.261Z,2.33
2018-04-14T10:42:19.989Z,2.30
2018-04-14T10:44:48.547Z,3.00
2018-04-14T10:47:16.269Z,2.00
2018-04-14T10:49:44.004Z,1.90
2018-04-14T10:52:12.517Z,1.63
2018-04-14T10:54:40.357Z,1.80
2018-04-14T10:57:08.924Z,1.50
2018-04-14T10:59:36.786Z,1.90
2018-04-14T11:02:04.523Z,1.20
2018-04-14T11:04:32.258Z,1.20
2018-04-14T11:06:59.985Z,1.40
2018-04-14T11:09:28.489Z,1.40
2018-04-14T11:11:56.292Z,1.43
2018-04-14T11:14:24.044Z,1.50
2018-04-14T11:16:51.776Z,1.73
2018-04-14T11:19:20.285Z,1.70
2018-04-14T11:21:48.099Z,1.47
2018-04-14T11:24:15.836Z,1.40
2018-04-14T11:26:43.573Z,1.33
2018-04-14T11:29:11.304Z,1.10
2018-04-14T11:31:39.806Z,2.60
2018-04-14T11:34:07.540Z,1.70
2018-04-14T11:36:36.042Z,1.80
2018-04-14T11:39:03.951Z,1.35
2018-04-14T11:41:31.702Z,1.20
2018-04-14T11:43:59.423Z,1.40
2018-04-14T11:46:27.936Z,1.30
2018-04-14T11:48:55.656Z,1.60
2018-04-14T11:51:24.153Z,1.40
2018-04-14T11:53:52.632Z,1.40
2018-04-14T11:56:21.176Z,1.70
2018-04-14T11:58:48.941Z,1.80
2018-04-14T13:15:23.212Z,3.65
2018-04-14T13:17:51.012Z,2.70
2018-04-14T13:20:18.737Z,1.97
2018-04-14T13:22:47.219Z,2.43
2018-04-14T13:25:15.723Z,2.80
2018-04-14T13:27:43.445Z,2.35
2018-04-14T13:30:11.191Z,3.03
2018-04-14T13:32:38.920Z,2.13
2018-04-14T13:35:06.668Z,2.50
2018-04-14T13:37:34.505Z,2.20
2018-04-14T13:40:02.236Z,2.30
2018-04-14T13:42:29.956Z,2.23
2018-04-14T13:44:57.684Z,2.57
2018-04-14T13:47:25.410Z,2.20
2018-04-14T13:49:53.143Z,2.33
2018-04-14T13:52:20.869Z,1.90
2018-04-14T13:54:48.650Z,2.63
2018-04-14T13:57:16.357Z,2.40
2018-04-14T13:59:44.078Z,2.63
2018-04-14T14:02:12.568Z,2.50
2018-04-14T14:04:41.049Z,2.60
2018-04-14T14:07:09.537Z,3.30
2018-04-14T14:09:37.264Z,2.97
2018-04-14T14:12:05.052Z,2.93
2018-04-14T14:14:33.641Z,2.90
2018-04-14T14:17:02.155Z,2.37
2018-04-14T14:19:29.873Z,2.90
2018-04-14T14:21:58.358Z,3.00
2018-04-14T14:24:26.852Z,2.10
2018-04-14T14:26:54.568Z,3.00
2018-04-14T14:29:22.288Z,3.57
2018-04-14T14:31:50.020Z,2.43
2018-04-14T14:34:18.512Z,2.40
2018-04-14T14:36:47.001Z,2.40
2018-04-14T14:39:14.717Z,2.70
2018-04-14T14:41:42.445Z,2.93
2018-04-14T14:44:10.200Z,2.63
2018-04-14T14:46:37.932Z,2.40
2018-04-14T14:49:06.441Z,2.17
2018-04-14T14:51:34.272Z,2.57
2018-04-14T14:54:01.995Z,2.53
2018-04-14T14:56:29.739Z,2.63
2018-04-14T14:58:57.516Z,2.50
2018-04-14T15:01:25.301Z,2.30
2018-04-14T15:03:53.095Z,3.03
2018-04-14T15:06:21.652Z,2.20
2018-04-14T15:08:49.373Z,1.97
2018-04-14T15:11:17.097Z,3.23
2018-04-14T15:13:44.816Z,2.30
2018-04-14T15:16:12.533Z,1.80
2018-04-14T15:18:41.039Z,2.53
2018-04-14T15:21:08.766Z,3.27
2018-04-14T15:23:36.481Z,2.20
2018-04-14T15:26:04.215Z,2.63
2018-04-14T15:28:32.702Z,2.33
2018-04-14T15:31:00.438Z,2.23
2018-04-14T15:33:28.168Z,2.90
2018-04-14T15:35:55.935Z,3.47
2018-04-14T15:38:23.673Z,4.00
2018-04-14T15:40:51.394Z,2.77
2018-04-14T15:43:19.151Z,4.00
2018-04-14T15:45:46.917Z,4.20
2018-04-14T15:48:14.657Z,2.70
2018-04-14T15:50:42.428Z,3.77
2018-04-14T15:53:10.152Z,2.67
2018-04-14T15:55:37.871Z,4.07
2018-04-14T15:58:05.638Z,3.83
2018-04-14T16:00:33.403Z,4.23
2018-04-14T16:03:01.905Z,3.60
2018-04-14T16:05:29.677Z,3.83
2018-04-14T16:07:57.400Z,4.23
2018-04-14T16:10:25.125Z,3.50
2018-04-14T16:12:52.840Z,3.50
2018-04-14T16:15:21.341Z,3.63
2018-04-14T16:17:49.078Z,3.67
2018-04-14T16:20:16.806Z,4.90
2018-04-14T16:22:44.555Z,5.47
2018-04-14T16:25:12.296Z,4.37
2018-04-14T16:27:40.031Z,4.40
2018-04-14T16:30:07.778Z,4.00
2018-04-14T16:32:35.506Z,4.50
2018-04-14T16:35:03.264Z,3.80
2018-04-14T16:37:30.991Z,5.87
2018-04-14T16:39:59.498Z,3.80
2018-04-14T16:42:27.230Z,3.73
2018-04-14T16:44:55.736Z,4.53
2018-04-14T16:47:24.234Z,4.07
2018-04-14T16:49:51.959Z,5.87
2018-04-14T16:52:20.464Z,5.30
2018-04-14T16:54:48.200Z,3.80
2018-04-14T16:57:15.915Z,3.60
2018-04-14T16:59:43.656Z,4.37
2018-04-14T17:02:11.392Z,3.83
2018-04-14T17:04:39.117Z,3.93
2018-04-14T17:07:06.884Z,4.67
2018-04-14T17:09:34.676Z,4.00
2018-04-14T17:12:02.406Z,4.60
2018-04-14T17:14:30.145Z,3.90
2018-04-14T17:16:57.880Z,4.30
2018-04-14T17:19:26.371Z,3.83
2018-04-14T17:21:54.869Z,5.20
2018-04-14T17:24:22.588Z,4.90
2018-04-14T17:26:50.307Z,4.57
2018-04-14T17:29:18.069Z,4.43
2018-04-14T17:31:45.804Z,3.80
2018-04-14T17:34:14.330Z,4.47
2018-04-14T17:36:42.064Z,4.40
2018-04-14T17:39:09.849Z,3.60
2018-04-14T17:41:37.597Z,4.70
2018-04-14T17:44:05.336Z,5.27
2018-04-14T17:46:33.840Z,4.77
2018-04-14T17:49:01.636Z,4.17
2018-04-14T17:51:29.369Z,5.00
2018-04-14T17:53:57.144Z,5.43
2018-04-14T17:56:24.899Z,5.10
2018-04-14T17:58:52.632Z,5.10
2018-04-14T18:01:21.208Z,5.80
2018-04-14T18:03:48.976Z,4.70
2018-04-14T18:06:16.723Z,4.57
2018-04-14T18:08:44.517Z,82.53
2018-04-14T18:11:13.032Z,107.63
2018-04-14T18:13:40.755Z,96.57
2018-04-14T18:16:09.257Z,46.87
2018-04-14T18:18:36.993Z,38.73
2018-04-14T18:21:05.492Z,20.80
2018-04-14T18:23:33.237Z,18.27
2018-04-14T18:26:01.736Z,6.53
2018-04-14T18:28:30.231Z,8.70
2018-04-14T18:30:57.977Z,5.33
2018-04-14T18:33:26.469Z,4.73
2018-04-14T18:35:54.201Z,4.57
2018-04-14T18:38:22.716Z,4.60
2018-04-14T18:40:50.457Z,5.50
2018-04-14T18:43:18.959Z,4.23
2018-04-14T18:45:46.701Z,4.00
2018-04-14T18:48:15.192Z,3.90
2018-04-14T18:50:43.672Z,6.10
2018-04-14T18:53:12.161Z,5.10
2018-04-14T18:55:39.926Z,4.67
2018-04-14T18:58:07.660Z,4.97
2018-04-14T19:00:35.384Z,4.57
2018-04-14T19:03:03.115Z,4.30
2018-04-14T19:05:30.833Z,4.33
2018-04-14T19:07:58.556Z,5.40
2018-04-14T19:10:26.310Z,4.10
2018-04-14T19:12:54.031Z,4.00
2018-04-14T19:15:21.767Z,4.33
2018-04-14T19:17:49.496Z,4.50
2018-04-14T19:20:17.228Z,5.70
2018-04-14T19:22:45.716Z,4.00
2018-04-14T19:25:14.200Z,2.70
2018-04-14T19:27:42.700Z,5.50
2018-04-14T19:30:10.441Z,3.53
2018-04-14T19:32:38.947Z,4.30
2018-04-14T19:35:06.677Z,7.17
2018-04-14T19:37:34.397Z,3.10
2018-04-14T19:40:02.116Z,3.90
2018-04-14T19:42:30.613Z,3.70
2018-04-14T19:44:58.348Z,3.00
2018-04-14T19:47:26.851Z,4.53
2018-04-14T19:49:54.580Z,4.00
2018-04-14T19:52:22.307Z,4.20
2018-04-14T19:54:50.030Z,3.77
2018-04-14T19:57:18.549Z,7.67
2018-04-14T19:59:46.318Z,3.90
2018-04-14T20:02:14.056Z,6.20
2018-04-14T20:04:41.845Z,5.27
2018-04-14T20:07:09.633Z,8.80
2018-04-14T20:09:37.352Z,3.73
2018-04-14T20:12:05.546Z,4.53
2018-04-14T20:14:33.305Z,4.57
2018-04-14T20:17:01.253Z,6.00
2018-04-14T20:19:29.031Z,6.00
2018-04-14T20:21:56.779Z,4.00
2018-04-14T20:24:24.713Z,4.77
2018-04-14T20:26:52.512Z,4.30
2018-04-14T20:29:20.361Z,4.87
2018-04-14T20:31:48.857Z,4.70
2018-04-14T20:34:16.618Z,4.43
2018-04-14T20:36:45.104Z,9.50
2018-04-14T20:39:12.916Z,4.10
2018-04-14T20:41:40.669Z,5.97
2018-04-14T20:44:08.418Z,5.07
2018-04-14T20:46:36.176Z,4.73
2018-04-14T20:49:03.912Z,5.00
2018-04-14T20:51:32.427Z,5.40
2018-04-14T20:54:00.157Z,5.28
2018-04-14T20:56:28.644Z,5.87
2018-04-14T20:58:56.394Z,7.93
2018-04-14T21:01:24.905Z,8.83
2018-04-14T21:03:52.712Z,8.48
2018-04-14T21:06:20.511Z,6.53
2018-04-14T21:08:49.005Z,6.22
2018-04-14T21:11:16.766Z,4.07
2018-04-14T21:13:44.542Z,4.18
2018-04-14T21:16:12.312Z,3.47
2018-04-14T21:18:40.045Z,3.60
2018-04-14T21:21:08.557Z,3.10
2018-04-14T21:23:36.345Z,2.30
2018-04-14T21:26:04.232Z,4.43
2018-04-14T21:28:32.845Z,2.97
2018-04-14T21:31:01.346Z,3.20
2018-04-14T21:33:29.068Z,3.63
2018-04-14T21:35:57.053Z,3.80
2018-04-14T21:38:25.580Z,3.00
2018-04-14T21:40:53.317Z,4.37
2018-04-14T21:43:21.053Z,4.33
2018-04-14T21:45:49.562Z,5.10
2018-04-14T21:48:17.292Z,4.50
2018-04-14T21:50:45.120Z,6.40
2018-04-14T21:53:12.888Z,5.30
2018-04-14T21:55:40.773Z,5.30
2018-04-14T21:58:08.527Z,5.37
2018-04-14T22:00:36.284Z,5.90
2018-04-14T22:03:04.037Z,5.10
2018-04-14T22:05:31.808Z,6.30
2018-04-14T22:07:59.528Z,4.30
2018-04-14T22:10:28.024Z,5.53
2018-04-14T22:12:55.749Z,5.00
2018-04-14T22:15:23.477Z,3.93
2018-04-14T22:17:51.228Z,6.83
2018-04-14T22:20:19.017Z,6.10
2018-04-14T22:22:46.764Z,6.30
2018-04-14T22:25:14.506Z,5.10
2018-04-14T22:27:42.233Z,4.60
2018-04-14T22:30:09.968Z,4.90
2018-04-14T22:32:37.802Z,5.23
2018-04-14T22:35:05.541Z,4.87
2018-04-14T22:37:34.046Z,4.67
2018-04-14T22:40:01.773Z,5.20
2018-04-14T22:42:30.267Z,4.30
2018-04-14T22:44:58.759Z,4.80
2018-04-14T22:47:26.538Z,6.23
2018-04-14T22:49:54.268Z,5.97
2018-04-14T22:52:22.765Z,5.20
2018-04-14T22:54:50.501Z,7.27
2018-04-14T22:57:18.232Z,7.10
2018-04-14T22:59:45.976Z,6.70
2018-04-14T23:02:14.472Z,6.73
2018-04-14T23:04:42.253Z,7.20
2018-04-14T23:07:09.981Z,6.60
2018-04-14T23:09:37.713Z,7.40
2018-04-14T23:12:06.204Z,8.07
2018-04-14T23:14:33.988Z,7.70
2018-04-14T23:17:01.709Z,8.00
2018-04-14T23:19:29.519Z,6.40
2018-04-14T23:21:57.298Z,7.13
2018-04-14T23:24:25.010Z,6.93
2018-04-14T23:26:52.821Z,5.20
2018-04-14T23:29:20.625Z,6.33
2018-04-14T23:31:48.452Z,5.30
2018-04-14T23:34:16.177Z,5.70
2018-04-14T23:36:44.665Z,5.67
2018-04-14T23:39:12.394Z,5.80
2018-04-14T23:41:40.116Z,5.70
2018-04-14T23:44:07.831Z,5.70
2018-04-14T23:46:36.316Z,6.10
2018-04-14T23:49:04.819Z,5.40
2018-04-14T23:51:32.540Z,5.77
2018-04-14T23:54:00.265Z,5.20
2018-04-14T23:56:28.060Z,6.03
2018-04-14T23:58:55.802Z,5.20
